Impacts TAF Board
For situational awareness. Not to be used for flight planning purposes.
IDs:

KDCA - Washington/National, VA, US

Issued at 1130 UTC 23 Jun 2021
Updated at 1247 UTC 23 Jun 2021
Potential Impact None Slight Moderate High
Time<<24/01Z 24/02Z 24/03Z 24/04Z 24/05Z 24/06Z 24/07Z 24/08Z 24/09Z 24/10Z 24/11Z 24/12Z 24/13Z>>
Type PRVL PRVL PRVL PRVL PRVL PRVL PRVL PRVL PRVL PRVL PRVL PRVL PRVL
VIS >6 >6 >6 >6 >6 >6 >6 >6 >6 >6 >6 >6 >6
CIG -- -- -- -- -- -- -- -- -- -- -- -- --
Cover SCT SCT SCT SCT SCT SCT SCT SCT SCT SCT SCT SCT SCT
FltCat VFR VFR VFR VFR VFR VFR VFR VFR VFR VFR VFR VFR VFR
WX -- -- -- -- -- -- -- -- -- -- -- -- --
WDir 120 120 120 120 120 VRB VRB VRB VRB VRB VRB VRB VRB
WSpd 4 4 4 4 4 3 3 3 3 3 3 3 3
WGst -- -- -- -- -- -- -- -- -- -- -- -- --
Raw TAF
KDCA 231130Z 2312/2418 35006KT P6SM FEW250
  FM231700 02005KT P6SM FEW060
  FM232000 05004KT P6SM FEW060
  FM240000 12004KT P6SM SCT200
  FM240600 VRB03KT P6SM SCT200
  FM241400 09008KT P6SM FEW050


METAR Board
Radar Display
Forecast Discussion
For situational awareness. Not to be used for flight planning purposes.